sensor_id;sensor_type;location;lat;lon;timestamp;P1;durP1;ratioP1;P2;durP2;ratioP2
84019;SDS011;74102;49.084;13.694;2024-03-02T00:00:10;13.75;;;6.38;;
84019;SDS011;74102;49.084;13.694;2024-03-02T00:05:07;16.60;;;7.72;;
84019;SDS011;74102;49.084;13.694;2024-03-02T00:07:46;17.50;;;8.30;;
84019;SDS011;74102;49.084;13.694;2024-03-02T00:10:19;24.77;;;10.98;;
84019;SDS011;74102;49.084;13.694;2024-03-02T00:12:48;19.73;;;8.38;;
84019;SDS011;74102;49.084;13.694;2024-03-02T00:18:08;20.85;;;9.50;;
84019;SDS011;74102;49.084;13.694;2024-03-02T00:20:36;18.00;;;8.90;;
84019;SDS011;74102;49.084;13.694;2024-03-02T00:23:05;17.00;;;8.35;;
84019;SDS011;74102;49.084;13.694;2024-03-02T00:28:25;14.23;;;7.07;;
84019;SDS011;74102;49.084;13.694;2024-03-02T00:30:59;17.10;;;7.05;;
84019;SDS011;74102;49.084;13.694;2024-03-02T00:33:34;14.82;;;7.45;;
84019;SDS011;74102;49.084;13.694;2024-03-02T00:36:02;16.45;;;7.35;;
84019;SDS011;74102;49.084;13.694;2024-03-02T00:38:29;13.13;;;6.45;;
84019;SDS011;74102;49.084;13.694;2024-03-02T00:40:58;13.63;;;6.43;;
84019;SDS011;74102;49.084;13.694;2024-03-02T00:43:41;14.93;;;6.95;;
84019;SDS011;74102;49.084;13.694;2024-03-02T00:46:18;16.13;;;7.35;;
84019;SDS011;74102;49.084;13.694;2024-03-02T00:48:48;15.05;;;6.53;;
84019;SDS011;74102;49.084;13.694;2024-03-02T00:51:19;16.10;;;7.55;;
84019;SDS011;74102;49.084;13.694;2024-03-02T00:53:45;15.43;;;7.03;;
84019;SDS011;74102;49.084;13.694;2024-03-02T00:56:10;14.90;;;7.13;;
84019;SDS011;74102;49.084;13.694;2024-03-02T00:58:37;16.63;;;7.05;;
84019;SDS011;74102;49.084;13.694;2024-03-02T01:01:03;16.08;;;7.13;;
84019;SDS011;74102;49.084;13.694;2024-03-02T01:03:28;14.15;;;6.70;;
84019;SDS011;74102;49.084;13.694;2024-03-02T01:05:53;25.20;;;9.82;;
84019;SDS011;74102;49.084;13.694;2024-03-02T01:08:19;25.48;;;10.48;;
84019;SDS011;74102;49.084;13.694;2024-03-02T01:10:44;56.28;;;18.83;;
84019;SDS011;74102;49.084;13.694;2024-03-02T01:13:09;23.33;;;9.93;;
84019;SDS011;74102;49.084;13.694;2024-03-02T01:15:35;18.90;;;8.93;;
84019;SDS011;74102;49.084;13.694;2024-03-02T01:18:00;22.77;;;9.80;;
84019;SDS011;74102;49.084;13.694;2024-03-02T01:20:26;45.05;;;16.30;;
84019;SDS011;74102;49.084;13.694;2024-03-02T01:22:52;34.85;;;13.52;;
84019;SDS011;74102;49.084;13.694;2024-03-02T01:25:18;15.77;;;7.50;;
84019;SDS011;74102;49.084;13.694;2024-03-02T01:27:43;13.38;;;6.30;;
84019;SDS011;74102;49.084;13.694;2024-03-02T01:30:09;20.65;;;8.50;;
84019;SDS011;74102;49.084;13.694;2024-03-02T01:32:35;15.88;;;7.53;;
84019;SDS011;74102;49.084;13.694;2024-03-02T01:35:03;16.45;;;6.88;;
84019;SDS011;74102;49.084;13.694;2024-03-02T01:37:29;14.25;;;7.15;;
84019;SDS011;74102;49.084;13.694;2024-03-02T01:39:54;12.55;;;6.30;;
84019;SDS011;74102;49.084;13.694;2024-03-02T01:42:19;12.07;;;5.95;;
84019;SDS011;74102;49.084;13.694;2024-03-02T01:44:45;12.98;;;5.88;;
84019;SDS011;74102;49.084;13.694;2024-03-02T01:47:10;14.18;;;6.55;;
84019;SDS011;74102;49.084;13.694;2024-03-02T01:49:36;12.27;;;6.15;;
84019;SDS011;74102;49.084;13.694;2024-03-02T01:52:02;10.95;;;5.70;;
84019;SDS011;74102;49.084;13.694;2024-03-02T01:54:27;12.13;;;5.80;;
84019;SDS011;74102;49.084;13.694;2024-03-02T01:56:53;12.38;;;5.85;;
84019;SDS011;74102;49.084;13.694;2024-03-02T01:59:18;55.97;;;18.17;;
84019;SDS011;74102;49.084;13.694;2024-03-02T02:01:44;29.48;;;11.73;;
84019;SDS011;74102;49.084;13.694;2024-03-02T02:04:09;14.48;;;7.43;;
84019;SDS011;74102;49.084;13.694;2024-03-02T02:06:34;15.00;;;7.00;;
84019;SDS011;74102;49.084;13.694;2024-03-02T02:09:00;12.25;;;5.97;;
84019;SDS011;74102;49.084;13.694;2024-03-02T02:11:25;12.80;;;6.38;;
84019;SDS011;74102;49.084;13.694;2024-03-02T02:13:51;12.88;;;5.68;;
84019;SDS011;74102;49.084;13.694;2024-03-02T02:16:16;9.98;;;5.20;;
84019;SDS011;74102;49.084;13.694;2024-03-02T02:18:41;10.50;;;5.00;;
84019;SDS011;74102;49.084;13.694;2024-03-02T02:21:07;10.25;;;4.80;;
84019;SDS011;74102;49.084;13.694;2024-03-02T02:23:32;10.75;;;5.40;;
84019;SDS011;74102;49.084;13.694;2024-03-02T02:25:58;9.32;;;4.70;;
84019;SDS011;74102;49.084;13.694;2024-03-02T02:28:23;9.20;;;4.78;;
84019;SDS011;74102;49.084;13.694;2024-03-02T02:30:49;10.07;;;5.43;;
84019;SDS011;74102;49.084;13.694;2024-03-02T02:33:14;10.43;;;4.72;;
84019;SDS011;74102;49.084;13.694;2024-03-02T02:35:40;11.50;;;5.25;;
84019;SDS011;74102;49.084;13.694;2024-03-02T02:38:05;10.48;;;5.13;;
84019;SDS011;74102;49.084;13.694;2024-03-02T02:40:31;10.77;;;5.05;;
84019;SDS011;74102;49.084;13.694;2024-03-02T02:42:57;9.50;;;4.68;;
84019;SDS011;74102;49.084;13.694;2024-03-02T02:45:24;9.43;;;4.30;;
84019;SDS011;74102;49.084;13.694;2024-03-02T02:47:49;7.72;;;4.03;;
84019;SDS011;74102;49.084;13.694;2024-03-02T02:50:14;12.50;;;6.10;;
84019;SDS011;74102;49.084;13.694;2024-03-02T02:52:40;9.82;;;4.80;;
84019;SDS011;74102;49.084;13.694;2024-03-02T02:55:10;23.20;;;9.55;;
84019;SDS011;74102;49.084;13.694;2024-03-02T02:57:36;18.25;;;7.45;;
84019;SDS011;74102;49.084;13.694;2024-03-02T03:02:37;10.57;;;5.15;;
84019;SDS011;74102;49.084;13.694;2024-03-02T03:05:04;11.48;;;5.10;;
84019;SDS011;74102;49.084;13.694;2024-03-02T03:07:31;9.73;;;4.63;;
84019;SDS011;74102;49.084;13.694;2024-03-02T03:09:56;11.23;;;4.80;;
84019;SDS011;74102;49.084;13.694;2024-03-02T03:12:22;10.38;;;4.70;;
84019;SDS011;74102;49.084;13.694;2024-03-02T03:14:47;10.60;;;4.95;;
84019;SDS011;74102;49.084;13.694;2024-03-02T03:17:12;10.90;;;4.75;;
84019;SDS011;74102;49.084;13.694;2024-03-02T03:19:38;39.78;;;12.82;;
84019;SDS011;74102;49.084;13.694;2024-03-02T03:22:03;21.08;;;7.97;;
84019;SDS011;74102;49.084;13.694;2024-03-02T03:24:29;29.92;;;11.23;;
84019;SDS011;74102;49.084;13.694;2024-03-02T03:26:54;19.92;;;9.05;;
84019;SDS011;74102;49.084;13.694;2024-03-02T03:29:20;14.70;;;6.90;;
84019;SDS011;74102;49.084;13.694;2024-03-02T03:31:45;17.40;;;8.13;;
84019;SDS011;74102;49.084;13.694;2024-03-02T03:34:10;15.02;;;7.93;;
84019;SDS011;74102;49.084;13.694;2024-03-02T03:36:40;15.98;;;8.23;;
84019;SDS011;74102;49.084;13.694;2024-03-02T03:39:06;20.08;;;11.27;;
84019;SDS011;74102;49.084;13.694;2024-03-02T03:41:31;15.70;;;8.48;;
84019;SDS011;74102;49.084;13.694;2024-03-02T03:43:56;17.52;;;9.30;;
84019;SDS011;74102;49.084;13.694;2024-03-02T03:46:22;15.75;;;8.32;;
84019;SDS011;74102;49.084;13.694;2024-03-02T03:48:47;16.45;;;8.35;;
84019;SDS011;74102;49.084;13.694;2024-03-02T03:51:12;18.40;;;8.10;;
84019;SDS011;74102;49.084;13.694;2024-03-02T03:53:38;15.15;;;7.63;;
84019;SDS011;74102;49.084;13.694;2024-03-02T03:56:03;14.10;;;7.10;;
84019;SDS011;74102;49.084;13.694;2024-03-02T03:58:29;16.27;;;7.75;;
84019;SDS011;74102;49.084;13.694;2024-03-02T04:00:54;13.65;;;7.03;;
84019;SDS011;74102;49.084;13.694;2024-03-02T04:03:19;13.20;;;7.00;;
84019;SDS011;74102;49.084;13.694;2024-03-02T04:05:45;15.80;;;7.47;;
84019;SDS011;74102;49.084;13.694;2024-03-02T04:08:10;16.58;;;8.20;;
84019;SDS011;74102;49.084;13.694;2024-03-02T04:10:36;13.60;;;7.13;;
84019;SDS011;74102;49.084;13.694;2024-03-02T04:13:02;12.63;;;6.80;;
84019;SDS011;74102;49.084;13.694;2024-03-02T04:15:27;14.27;;;6.95;;
84019;SDS011;74102;49.084;13.694;2024-03-02T04:17:53;10.30;;;5.72;;
84019;SDS011;74102;49.084;13.694;2024-03-02T04:20:18;11.50;;;5.82;;
84019;SDS011;74102;49.084;13.694;2024-03-02T04:22:43;13.50;;;6.20;;
84019;SDS011;74102;49.084;13.694;2024-03-02T04:25:09;13.93;;;7.15;;
84019;SDS011;74102;49.084;13.694;2024-03-02T04:27:34;19.17;;;8.18;;
84019;SDS011;74102;49.084;13.694;2024-03-02T04:30:00;16.30;;;7.38;;
84019;SDS011;74102;49.084;13.694;2024-03-02T04:32:26;17.58;;;8.93;;
84019;SDS011;74102;49.084;13.694;2024-03-02T04:34:52;21.90;;;9.45;;
84019;SDS011;74102;49.084;13.694;2024-03-02T04:37:17;18.25;;;9.00;;
84019;SDS011;74102;49.084;13.694;2024-03-02T04:39:42;21.60;;;9.18;;
84019;SDS011;74102;49.084;13.694;2024-03-02T04:42:08;17.60;;;8.77;;
84019;SDS011;74102;49.084;13.694;2024-03-02T04:44:33;25.33;;;9.93;;
84019;SDS011;74102;49.084;13.694;2024-03-02T04:46:59;19.75;;;8.95;;
84019;SDS011;74102;49.084;13.694;2024-03-02T04:49:24;25.02;;;10.90;;
84019;SDS011;74102;49.084;13.694;2024-03-02T04:51:50;21.77;;;8.82;;
84019;SDS011;74102;49.084;13.694;2024-03-02T04:54:15;20.33;;;8.20;;
84019;SDS011;74102;49.084;13.694;2024-03-02T04:56:40;14.27;;;6.95;;
84019;SDS011;74102;49.084;13.694;2024-03-02T04:59:09;16.55;;;7.45;;
84019;SDS011;74102;49.084;13.694;2024-03-02T05:01:35;12.40;;;6.13;;
84019;SDS011;74102;49.084;13.694;2024-03-02T05:04:01;13.30;;;6.70;;
84019;SDS011;74102;49.084;13.694;2024-03-02T05:06:26;14.25;;;6.28;;
84019;SDS011;74102;49.084;13.694;2024-03-02T05:08:52;12.63;;;6.10;;
84019;SDS011;74102;49.084;13.694;2024-03-02T05:11:17;12.05;;;6.05;;
84019;SDS011;74102;49.084;13.694;2024-03-02T05:14:01;16.77;;;6.97;;
84019;SDS011;74102;49.084;13.694;2024-03-02T05:16:26;13.98;;;6.20;;
84019;SDS011;74102;49.084;13.694;2024-03-02T05:18:52;11.65;;;5.65;;
84019;SDS011;74102;49.084;13.694;2024-03-02T05:21:17;11.13;;;5.50;;
84019;SDS011;74102;49.084;13.694;2024-03-02T05:23:42;12.60;;;5.93;;
84019;SDS011;74102;49.084;13.694;2024-03-02T05:26:08;12.13;;;5.55;;
84019;SDS011;74102;49.084;13.694;2024-03-02T05:28:36;11.55;;;5.80;;
84019;SDS011;74102;49.084;13.694;2024-03-02T05:31:01;12.73;;;5.80;;
84019;SDS011;74102;49.084;13.694;2024-03-02T05:33:27;11.07;;;5.03;;
84019;SDS011;74102;49.084;13.694;2024-03-02T05:35:53;9.85;;;4.40;;
84019;SDS011;74102;49.084;13.694;2024-03-02T05:38:18;10.40;;;4.85;;
84019;SDS011;74102;49.084;13.694;2024-03-02T05:40:44;11.10;;;4.20;;
84019;SDS011;74102;49.084;13.694;2024-03-02T05:43:09;10.85;;;5.00;;
84019;SDS011;74102;49.084;13.694;2024-03-02T05:45:34;12.85;;;5.05;;
84019;SDS011;74102;49.084;13.694;2024-03-02T05:48:00;16.42;;;7.07;;
84019;SDS011;74102;49.084;13.694;2024-03-02T05:50:25;23.08;;;8.45;;
84019;SDS011;74102;49.084;13.694;2024-03-02T05:52:50;17.77;;;7.28;;
84019;SDS011;74102;49.084;13.694;2024-03-02T05:55:16;15.32;;;6.53;;
84019;SDS011;74102;49.084;13.694;2024-03-02T05:57:41;19.33;;;7.40;;
84019;SDS011;74102;49.084;13.694;2024-03-02T06:00:09;21.00;;;7.43;;
84019;SDS011;74102;49.084;13.694;2024-03-02T06:02:38;17.45;;;6.78;;
84019;SDS011;74102;49.084;13.694;2024-03-02T06:05:04;20.90;;;7.05;;
84019;SDS011;74102;49.084;13.694;2024-03-02T06:07:32;15.05;;;6.30;;
84019;SDS011;74102;49.084;13.694;2024-03-02T06:09:57;15.10;;;6.45;;
84019;SDS011;74102;49.084;13.694;2024-03-02T06:12:23;17.98;;;7.15;;
84019;SDS011;74102;49.084;13.694;2024-03-02T06:14:49;13.95;;;6.03;;
84019;SDS011;74102;49.084;13.694;2024-03-02T06:17:14;15.63;;;6.30;;
84019;SDS011;74102;49.084;13.694;2024-03-02T06:19:39;16.23;;;6.82;;
84019;SDS011;74102;49.084;13.694;2024-03-02T06:22:05;16.45;;;7.93;;
84019;SDS011;74102;49.084;13.694;2024-03-02T06:24:30;15.52;;;7.60;;
84019;SDS011;74102;49.084;13.694;2024-03-02T06:26:56;16.80;;;7.50;;
84019;SDS011;74102;49.084;13.694;2024-03-02T06:29:21;15.20;;;7.50;;
84019;SDS011;74102;49.084;13.694;2024-03-02T06:31:46;16.80;;;7.88;;
84019;SDS011;74102;49.084;13.694;2024-03-02T06:34:12;14.70;;;8.10;;
84019;SDS011;74102;49.084;13.694;2024-03-02T06:36:38;16.63;;;8.27;;
84019;SDS011;74102;49.084;13.694;2024-03-02T06:39:03;18.70;;;9.75;;
84019;SDS011;74102;49.084;13.694;2024-03-02T06:41:29;18.40;;;9.50;;
84019;SDS011;74102;49.084;13.694;2024-03-02T06:43:54;16.73;;;8.43;;
84019;SDS011;74102;49.084;13.694;2024-03-02T06:46:24;14.60;;;7.60;;
84019;SDS011;74102;49.084;13.694;2024-03-02T06:48:50;12.27;;;6.57;;
84019;SDS011;74102;49.084;13.694;2024-03-02T06:51:15;14.82;;;7.45;;
84019;SDS011;74102;49.084;13.694;2024-03-02T06:53:41;13.73;;;7.30;;
84019;SDS011;74102;49.084;13.694;2024-03-02T06:56:07;12.15;;;5.35;;
84019;SDS011;74102;49.084;13.694;2024-03-02T06:58:33;9.15;;;4.82;;
84019;SDS011;74102;49.084;13.694;2024-03-02T07:00:58;9.25;;;4.68;;
84019;SDS011;74102;49.084;13.694;2024-03-02T07:03:25;8.25;;;4.05;;
84019;SDS011;74102;49.084;13.694;2024-03-02T07:05:51;8.63;;;4.40;;
84019;SDS011;74102;49.084;13.694;2024-03-02T07:08:16;8.25;;;4.07;;
84019;SDS011;74102;49.084;13.694;2024-03-02T07:10:41;9.85;;;4.65;;
84019;SDS011;74102;49.084;13.694;2024-03-02T07:13:07;9.65;;;4.57;;
84019;SDS011;74102;49.084;13.694;2024-03-02T07:15:32;9.32;;;4.55;;
84019;SDS011;74102;49.084;13.694;2024-03-02T07:18:16;12.40;;;5.43;;
84019;SDS011;74102;49.084;13.694;2024-03-02T07:20:42;11.32;;;4.97;;
84019;SDS011;74102;49.084;13.694;2024-03-02T07:23:07;8.52;;;4.43;;
84019;SDS011;74102;49.084;13.694;2024-03-02T07:25:34;11.10;;;4.82;;
84019;SDS011;74102;49.084;13.694;2024-03-02T07:27:59;12.02;;;6.20;;
84019;SDS011;74102;49.084;13.694;2024-03-02T07:30:25;18.70;;;9.18;;
84019;SDS011;74102;49.084;13.694;2024-03-02T07:32:50;17.17;;;10.65;;
84019;SDS011;74102;49.084;13.694;2024-03-02T07:35:16;13.77;;;7.95;;
84019;SDS011;74102;49.084;13.694;2024-03-02T07:37:41;16.77;;;9.77;;
84019;SDS011;74102;49.084;13.694;2024-03-02T07:40:07;19.15;;;9.98;;
84019;SDS011;74102;49.084;13.694;2024-03-02T07:42:40;14.75;;;7.75;;
84019;SDS011;74102;49.084;13.694;2024-03-02T07:45:05;13.07;;;7.43;;
84019;SDS011;74102;49.084;13.694;2024-03-02T07:47:32;21.45;;;9.65;;
84019;SDS011;74102;49.084;13.694;2024-03-02T07:49:58;20.00;;;9.48;;
84019;SDS011;74102;49.084;13.694;2024-03-02T07:52:24;26.20;;;12.98;;
84019;SDS011;74102;49.084;13.694;2024-03-02T07:54:49;41.25;;;19.55;;
84019;SDS011;74102;49.084;13.694;2024-03-02T07:57:14;21.65;;;11.15;;
84019;SDS011;74102;49.084;13.694;2024-03-02T07:59:40;15.45;;;8.13;;
84019;SDS011;74102;49.084;13.694;2024-03-02T08:02:05;13.50;;;7.13;;
84019;SDS011;74102;49.084;13.694;2024-03-02T08:04:31;10.63;;;5.80;;
84019;SDS011;74102;49.084;13.694;2024-03-02T08:06:57;12.68;;;5.63;;
84019;SDS011;74102;49.084;13.694;2024-03-02T08:09:22;9.80;;;6.03;;
84019;SDS011;74102;49.084;13.694;2024-03-02T08:11:48;11.50;;;5.82;;
84019;SDS011;74102;49.084;13.694;2024-03-02T08:14:14;10.38;;;4.82;;
84019;SDS011;74102;49.084;13.694;2024-03-02T08:16:39;11.02;;;5.45;;
84019;SDS011;74102;49.084;13.694;2024-03-02T08:19:05;10.20;;;5.40;;
84019;SDS011;74102;49.084;13.694;2024-03-02T08:21:30;12.80;;;7.53;;
84019;SDS011;74102;49.084;13.694;2024-03-02T08:23:57;11.43;;;6.10;;
84019;SDS011;74102;49.084;13.694;2024-03-02T08:26:23;12.27;;;5.30;;
84019;SDS011;74102;49.084;13.694;2024-03-02T08:28:49;10.93;;;5.07;;
84019;SDS011;74102;49.084;13.694;2024-03-02T08:31:14;15.35;;;7.45;;
84019;SDS011;74102;49.084;13.694;2024-03-02T08:33:39;12.02;;;6.07;;
84019;SDS011;74102;49.084;13.694;2024-03-02T08:36:05;10.55;;;5.78;;
84019;SDS011;74102;49.084;13.694;2024-03-02T08:38:31;9.45;;;5.07;;
84019;SDS011;74102;49.084;13.694;2024-03-02T08:40:57;9.43;;;4.50;;
84019;SDS011;74102;49.084;13.694;2024-03-02T08:43:22;8.60;;;4.45;;
84019;SDS011;74102;49.084;13.694;2024-03-02T08:45:48;9.27;;;4.97;;
84019;SDS011;74102;49.084;13.694;2024-03-02T08:48:14;9.38;;;4.50;;
84019;SDS011;74102;49.084;13.694;2024-03-02T08:50:39;11.68;;;6.07;;
84019;SDS011;74102;49.084;13.694;2024-03-02T08:53:05;15.55;;;6.32;;
84019;SDS011;74102;49.084;13.694;2024-03-02T08:55:30;11.15;;;6.68;;
84019;SDS011;74102;49.084;13.694;2024-03-02T08:57:56;12.02;;;6.18;;
84019;SDS011;74102;49.084;13.694;2024-03-02T09:00:22;10.23;;;5.43;;
84019;SDS011;74102;49.084;13.694;2024-03-02T09:02:48;8.68;;;4.45;;
84019;SDS011;74102;49.084;13.694;2024-03-02T09:05:13;10.45;;;5.07;;
84019;SDS011;74102;49.084;13.694;2024-03-02T09:07:39;8.23;;;4.47;;
84019;SDS011;74102;49.084;13.694;2024-03-02T09:10:05;8.15;;;4.22;;
84019;SDS011;74102;49.084;13.694;2024-03-02T09:12:31;9.25;;;4.82;;
84019;SDS011;74102;49.084;13.694;2024-03-02T09:14:57;11.45;;;5.57;;
84019;SDS011;74102;49.084;13.694;2024-03-02T09:17:22;10.43;;;5.00;;
84019;SDS011;74102;49.084;13.694;2024-03-02T09:19:48;11.32;;;5.63;;
84019;SDS011;74102;49.084;13.694;2024-03-02T09:22:13;9.40;;;4.93;;
84019;SDS011;74102;49.084;13.694;2024-03-02T09:24:39;8.90;;;4.47;;
84019;SDS011;74102;49.084;13.694;2024-03-02T09:27:04;9.80;;;4.75;;
84019;SDS011;74102;49.084;13.694;2024-03-02T09:29:30;8.55;;;4.60;;
84019;SDS011;74102;49.084;13.694;2024-03-02T09:31:56;8.48;;;4.80;;
84019;SDS011;74102;49.084;13.694;2024-03-02T09:34:21;8.70;;;4.35;;
84019;SDS011;74102;49.084;13.694;2024-03-02T09:36:47;8.98;;;4.22;;
84019;SDS011;74102;49.084;13.694;2024-03-02T09:39:12;9.32;;;4.32;;
84019;SDS011;74102;49.084;13.694;2024-03-02T09:41:38;7.38;;;3.58;;
84019;SDS011;74102;49.084;13.694;2024-03-02T09:44:04;8.57;;;4.03;;
84019;SDS011;74102;49.084;13.694;2024-03-02T09:46:30;9.02;;;4.60;;
84019;SDS011;74102;49.084;13.694;2024-03-02T09:48:56;8.10;;;4.05;;
84019;SDS011;74102;49.084;13.694;2024-03-02T09:51:21;7.80;;;3.35;;
84019;SDS011;74102;49.084;13.694;2024-03-02T09:53:47;9.35;;;4.45;;
84019;SDS011;74102;49.084;13.694;2024-03-02T09:56:14;7.82;;;3.40;;
84019;SDS011;74102;49.084;13.694;2024-03-02T09:58:40;7.35;;;3.58;;
84019;SDS011;74102;49.084;13.694;2024-03-02T10:01:06;6.72;;;3.17;;
84019;SDS011;74102;49.084;13.694;2024-03-02T10:03:32;6.80;;;3.53;;
84019;SDS011;74102;49.084;13.694;2024-03-02T10:06:18;7.40;;;4.07;;
84019;SDS011;74102;49.084;13.694;2024-03-02T10:08:50;6.78;;;3.35;;
84019;SDS011;74102;49.084;13.694;2024-03-02T10:11:25;8.15;;;4.03;;
84019;SDS011;74102;49.084;13.694;2024-03-02T10:14:10;8.25;;;5.07;;
84019;SDS011;74102;49.084;13.694;2024-03-02T10:16:37;6.60;;;3.47;;
84019;SDS011;74102;49.084;13.694;2024-03-02T10:19:19;6.45;;;3.15;;
84019;SDS011;74102;49.084;13.694;2024-03-02T10:21:53;7.25;;;3.42;;
84019;SDS011;74102;49.084;13.694;2024-03-02T10:24:20;8.20;;;3.47;;
84019;SDS011;74102;49.084;13.694;2024-03-02T10:26:47;7.50;;;3.45;;
84019;SDS011;74102;49.084;13.694;2024-03-02T10:29:13;7.63;;;3.67;;
84019;SDS011;74102;49.084;13.694;2024-03-02T10:31:39;6.97;;;3.55;;
84019;SDS011;74102;49.084;13.694;2024-03-02T10:34:07;8.45;;;4.75;;
84019;SDS011;74102;49.084;13.694;2024-03-02T10:36:33;10.82;;;4.97;;
84019;SDS011;74102;49.084;13.694;2024-03-02T10:39:01;11.40;;;5.95;;
84019;SDS011;74102;49.084;13.694;2024-03-02T10:41:28;12.63;;;7.22;;
84019;SDS011;74102;49.084;13.694;2024-03-02T10:44:03;10.65;;;5.57;;
84019;SDS011;74102;49.084;13.694;2024-03-02T10:46:33;10.05;;;5.10;;
84019;SDS011;74102;49.084;13.694;2024-03-02T10:49:00;11.35;;;6.03;;
84019;SDS011;74102;49.084;13.694;2024-03-02T10:51:27;8.40;;;4.72;;
84019;SDS011;74102;49.084;13.694;2024-03-02T10:53:56;8.50;;;4.80;;
84019;SDS011;74102;49.084;13.694;2024-03-02T10:56:41;10.73;;;5.57;;
84019;SDS011;74102;49.084;13.694;2024-03-02T11:02:16;9.13;;;5.40;;
84019;SDS011;74102;49.084;13.694;2024-03-02T11:04:42;11.68;;;5.07;;
84019;SDS011;74102;49.084;13.694;2024-03-02T11:07:11;9.52;;;5.18;;
84019;SDS011;74102;49.084;13.694;2024-03-02T11:09:41;9.32;;;4.90;;
84019;SDS011;74102;49.084;13.694;2024-03-02T11:12:13;14.10;;;6.43;;
84019;SDS011;74102;49.084;13.694;2024-03-02T11:14:44;9.50;;;5.22;;
84019;SDS011;74102;49.084;13.694;2024-03-02T11:17:09;9.57;;;5.25;;
84019;SDS011;74102;49.084;13.694;2024-03-02T11:19:39;9.32;;;4.55;;
84019;SDS011;74102;49.084;13.694;2024-03-02T11:22:06;10.00;;;4.88;;
84019;SDS011;74102;49.084;13.694;2024-03-02T11:24:33;8.32;;;4.47;;
84019;SDS011;74102;49.084;13.694;2024-03-02T11:27:00;9.52;;;5.13;;
84019;SDS011;74102;49.084;13.694;2024-03-02T11:32:06;15.38;;;8.20;;
84019;SDS011;74102;49.084;13.694;2024-03-02T11:34:39;14.50;;;7.68;;
84019;SDS011;74102;49.084;13.694;2024-03-02T11:37:11;12.43;;;7.13;;
84019;SDS011;74102;49.084;13.694;2024-03-02T11:39:37;11.50;;;5.78;;
84019;SDS011;74102;49.084;13.694;2024-03-02T11:42:05;9.93;;;5.20;;
84019;SDS011;74102;49.084;13.694;2024-03-02T11:44:34;9.30;;;4.97;;
84019;SDS011;74102;49.084;13.694;2024-03-02T11:47:01;8.68;;;4.85;;
84019;SDS011;74102;49.084;13.694;2024-03-02T11:49:37;9.90;;;4.43;;
84019;SDS011;74102;49.084;13.694;2024-03-02T11:52:10;6.97;;;4.13;;
84019;SDS011;74102;49.084;13.694;2024-03-02T11:54:38;10.15;;;5.22;;
84019;SDS011;74102;49.084;13.694;2024-03-02T11:57:05;8.85;;;4.63;;
84019;SDS011;74102;49.084;13.694;2024-03-02T11:59:34;10.38;;;5.97;;
84019;SDS011;74102;49.084;13.694;2024-03-02T12:01:59;13.07;;;6.40;;
84019;SDS011;74102;49.084;13.694;2024-03-02T12:04:25;19.33;;;10.60;;
84019;SDS011;74102;49.084;13.694;2024-03-02T12:06:57;10.90;;;5.70;;
84019;SDS011;74102;49.084;13.694;2024-03-02T12:09:27;9.30;;;5.18;;
84019;SDS011;74102;49.084;13.694;2024-03-02T12:12:05;12.13;;;6.70;;
84019;SDS011;74102;49.084;13.694;2024-03-02T12:14:32;10.20;;;6.18;;
84019;SDS011;74102;49.084;13.694;2024-03-02T12:16:59;10.25;;;6.15;;
84019;SDS011;74102;49.084;13.694;2024-03-02T12:19:25;10.95;;;6.40;;
84019;SDS011;74102;49.084;13.694;2024-03-02T12:21:52;13.82;;;7.70;;
84019;SDS011;74102;49.084;13.694;2024-03-02T12:24:19;13.85;;;7.82;;
84019;SDS011;74102;49.084;13.694;2024-03-02T12:26:45;16.33;;;8.68;;
84019;SDS011;74102;49.084;13.694;2024-03-02T12:29:13;12.93;;;7.32;;
84019;SDS011;74102;49.084;13.694;2024-03-02T12:31:38;13.48;;;7.95;;
84019;SDS011;74102;49.084;13.694;2024-03-02T12:34:04;12.82;;;7.32;;
84019;SDS011;74102;49.084;13.694;2024-03-02T12:36:29;15.55;;;9.07;;
84019;SDS011;74102;49.084;13.694;2024-03-02T12:38:55;16.67;;;7.78;;
84019;SDS011;74102;49.084;13.694;2024-03-02T12:41:20;16.45;;;8.60;;
84019;SDS011;74102;49.084;13.694;2024-03-02T12:43:46;15.15;;;7.85;;
84019;SDS011;74102;49.084;13.694;2024-03-02T12:46:11;14.88;;;8.50;;
84019;SDS011;74102;49.084;13.694;2024-03-02T12:48:37;13.00;;;7.75;;
84019;SDS011;74102;49.084;13.694;2024-03-02T12:51:05;13.68;;;8.32;;
84019;SDS011;74102;49.084;13.694;2024-03-02T12:53:31;13.20;;;7.80;;
84019;SDS011;74102;49.084;13.694;2024-03-02T12:55:56;16.45;;;9.88;;
84019;SDS011;74102;49.084;13.694;2024-03-02T12:58:22;16.88;;;9.10;;
84019;SDS011;74102;49.084;13.694;2024-03-02T13:00:48;15.50;;;9.32;;
84019;SDS011;74102;49.084;13.694;2024-03-02T13:03:14;15.00;;;8.82;;
84019;SDS011;74102;49.084;13.694;2024-03-02T13:05:40;15.45;;;8.77;;
84019;SDS011;74102;49.084;13.694;2024-03-02T13:08:06;16.45;;;9.07;;
84019;SDS011;74102;49.084;13.694;2024-03-02T13:10:32;18.75;;;9.35;;
84019;SDS011;74102;49.084;13.694;2024-03-02T13:12:58;19.95;;;11.23;;
84019;SDS011;74102;49.084;13.694;2024-03-02T13:15:26;43.88;;;20.35;;
84019;SDS011;74102;49.084;13.694;2024-03-02T13:17:52;54.25;;;22.92;;
84019;SDS011;74102;49.084;13.694;2024-03-02T13:20:17;33.13;;;16.80;;
84019;SDS011;74102;49.084;13.694;2024-03-02T13:22:44;31.83;;;15.98;;
84019;SDS011;74102;49.084;13.694;2024-03-02T13:25:09;23.85;;;12.98;;
84019;SDS011;74102;49.084;13.694;2024-03-02T13:27:35;24.70;;;12.98;;
84019;SDS011;74102;49.084;13.694;2024-03-02T13:30:02;20.05;;;10.90;;
84019;SDS011;74102;49.084;13.694;2024-03-02T13:32:28;31.38;;;14.98;;
84019;SDS011;74102;49.084;13.694;2024-03-02T13:34:54;26.48;;;12.43;;
84019;SDS011;74102;49.084;13.694;2024-03-02T13:37:22;21.42;;;11.60;;
84019;SDS011;74102;49.084;13.694;2024-03-02T13:39:48;22.88;;;13.38;;
84019;SDS011;74102;49.084;13.694;2024-03-02T13:42:14;38.20;;;18.73;;
84019;SDS011;74102;49.084;13.694;2024-03-02T13:44:40;28.85;;;15.00;;
84019;SDS011;74102;49.084;13.694;2024-03-02T13:47:08;22.55;;;12.88;;
84019;SDS011;74102;49.084;13.694;2024-03-02T13:49:33;18.95;;;10.98;;
84019;SDS011;74102;49.084;13.694;2024-03-02T13:52:00;16.98;;;9.60;;
84019;SDS011;74102;49.084;13.694;2024-03-02T13:54:28;20.95;;;11.23;;
84019;SDS011;74102;49.084;13.694;2024-03-02T13:56:53;30.20;;;17.17;;
84019;SDS011;74102;49.084;13.694;2024-03-02T13:59:19;21.00;;;12.65;;
84019;SDS011;74102;49.084;13.694;2024-03-02T14:01:45;21.05;;;11.75;;
84019;SDS011;74102;49.084;13.694;2024-03-02T14:04:10;22.65;;;13.15;;
84019;SDS011;74102;49.084;13.694;2024-03-02T14:06:36;23.58;;;12.93;;
84019;SDS011;74102;49.084;13.694;2024-03-02T14:09:01;23.17;;;13.25;;
84019;SDS011;74102;49.084;13.694;2024-03-02T14:11:26;24.98;;;12.38;;
84019;SDS011;74102;49.084;13.694;2024-03-02T14:13:52;22.02;;;12.05;;
84019;SDS011;74102;49.084;13.694;2024-03-02T14:16:19;20.55;;;12.60;;
84019;SDS011;74102;49.084;13.694;2024-03-02T14:18:45;22.05;;;13.57;;
84019;SDS011;74102;49.084;13.694;2024-03-02T14:21:11;22.45;;;13.55;;
84019;SDS011;74102;49.084;13.694;2024-03-02T14:23:36;20.15;;;11.82;;
84019;SDS011;74102;49.084;13.694;2024-03-02T14:26:02;23.20;;;14.27;;
84019;SDS011;74102;49.084;13.694;2024-03-02T14:28:27;20.15;;;11.85;;
84019;SDS011;74102;49.084;13.694;2024-03-02T14:30:53;23.92;;;13.20;;
84019;SDS011;74102;49.084;13.694;2024-03-02T14:33:18;21.05;;;12.38;;
84019;SDS011;74102;49.084;13.694;2024-03-02T14:35:44;25.38;;;13.35;;